Time;durP1;ratioP1;P1;durP2;ratioP2;P2;SDS_P1;SDS_P2;PMS_P1;PMS_P2;Temp;Humidity;BMP_temperature;BMP_pressure;BME280_temperature;BME280_humidity;BME280_pressure;Samples;Min_cycle;Max_cycle;Signal;HPM_P1;HPM_P2
2022/04/29 00:00:14;;;;;;;10.10;7.67;;;;;;;9.60;47.84;100184.34;5012814;28;20070;-67
2022/04/29 00:02:40;;;;;;;11.17;8.10;;;;;;;9.41;48.15;100184.34;5013437;28;20037;-67
2022/04/29 00:05:08;;;;;;;10.93;7.67;;;;;;;9.40;48.18;100190.59;5029390;28;20053;-67
2022/04/29 00:07:35;;;;;;;15.10;8.27;;;;;;;9.40;48.28;100190.59;5013379;28;20103;-67
2022/04/29 00:10:01;;;;;;;12.50;8.63;;;;;;;9.21;48.45;100178.13;4997032;28;20041;-67
2022/04/29 00:12:28;;;;;;;12.87;8.23;;;;;;;9.20;48.47;100181.78;5013642;28;20072;-67
2022/04/29 00:14:55;;;;;;;14.00;8.77;;;;;;;9.01;48.56;100165.81;5012881;28;20524;-68
2022/04/29 00:17:21;;;;;;;13.60;8.63;;;;;;;9.13;48.72;100180.66;5013048;28;20049;-67
2022/04/29 00:19:46;;;;;;;14.97;8.33;;;;;;;9.12;48.92;100178.97;5029139;28;20041;-67
2022/04/29 00:22:12;;;;;;;11.83;8.07;;;;;;;9.01;48.76;100163.16;5013088;28;20049;-67
2022/04/29 00:24:38;;;;;;;15.70;9.23;;;;;;;9.07;48.92;100175.88;5013092;28;20042;-67
2022/04/29 00:27:04;;;;;;;14.77;8.93;;;;;;;9.16;48.78;100182.19;5012904;28;20527;-72
2022/04/29 00:29:30;;;;;;;13.77;9.20;;;;;;;9.10;48.76;100183.56;5012964;28;20409;-67
2022/04/29 00:31:56;;;;;;;14.73;8.17;;;;;;;9.05;48.98;100180.50;4996636;28;20049;-67
2022/04/29 00:34:23;;;;;;;15.83;9.60;;;;;;;9.00;48.80;100179.19;5013277;28;20046;-67
2022/04/29 00:36:48;;;;;;;13.60;9.27;;;;;;;9.00;49.01;100181.84;4996506;28;20427;-67
2022/04/29 00:39:14;;;;;;;18.57;9.73;;;;;;;8.81;49.02;100153.47;4980754;28;20053;-67
2022/04/29 00:41:40;;;;;;;15.33;9.70;;;;;;;8.92;49.04;100177.22;5013038;28;20092;-67
2022/04/29 00:44:09;;;;;;;14.53;10.17;;;;;;;9.05;49.06;100187.59;5032368;28;20045;-70
2022/04/29 00:46:43;;;;;;;21.73;11.10;;;;;;;8.97;49.15;100156.47;5016590;28;20072;-71
2022/04/29 00:49:11;;;;;;;18.40;10.03;;;;;;;8.85;49.26;100160.22;5016744;28;20041;-68
2022/04/29 00:51:38;;;;;;;16.03;9.17;;;;;;;8.99;49.21;100182.84;5017068;28;20124;-67
2022/04/29 00:54:09;;;;;;;16.50;11.03;;;;;;;9.03;49.20;100182.44;5000890;28;20506;-67
2022/04/29 00:56:37;;;;;;;14.20;9.07;;;;;;;8.94;49.40;100182.38;5034734;28;20053;-67
2022/04/29 00:59:05;;;;;;;18.80;10.80;;;;;;;8.65;49.42;100158.47;5016685;28;20292;-68
2022/04/29 01:01:34;;;;;;;17.63;9.77;;;;;;;8.80;49.61;100177.44;5032883;28;20146;-67
2022/04/29 01:04:03;;;;;;;21.10;11.67;;;;;;;8.87;49.38;100158.28;5016309;28;20045;-67
2022/04/29 01:06:29;;;;;;;23.77;13.00;;;;;;;8.74;49.56;100176.19;4999698;28;20417;-69
2022/04/29 01:08:56;;;;;;;23.63;13.87;;;;;;;8.77;49.96;100173.28;5016093;28;20048;-68
2022/04/29 01:11:26;;;;;;;22.30;13.77;;;;;;;9.00;49.78;100174.75;5032690;28;20041;-68
2022/04/29 01:13:54;;;;;;;26.40;14.83;;;;;;;8.92;49.90;100171.13;5016108;28;20383;-67
2022/04/29 01:16:21;;;;;;;29.03;14.77;;;;;;;8.90;49.92;100186.28;5016174;28;20061;-67
2022/04/29 01:18:50;;;;;;;30.07;16.23;;;;;;;8.98;50.14;100189.13;5032459;28;20049;-67
2022/04/29 01:21:16;;;;;;;33.00;16.37;;;;;;;8.74;50.21;100176.19;5016362;28;20198;-67
2022/04/29 01:23:44;;;;;;;30.60;15.60;;;;;;;8.97;50.10;100175.03;4999942;28;20472;-68
2022/04/29 01:26:15;;;;;;;26.60;15.60;;;;;;;8.83;50.06;100171.88;5032353;28;20045;-67
2022/04/29 01:28:46;;;;;;;32.33;17.47;;;;;;;8.91;49.93;100180.84;5017019;28;20641;-67
2022/04/29 01:31:14;;;;;;;28.57;15.30;;;;;;;8.94;49.90;100179.75;5015887;28;20081;-70
2022/04/29 01:33:46;;;;;;;24.87;14.13;;;;;;;8.99;49.72;100175.72;4999487;28;20041;-67
2022/04/29 01:36:13;;;;;;;25.03;15.00;;;;;;;8.69;49.60;100180.22;5015922;28;20041;-66
2022/04/29 01:38:39;;;;;;;20.60;13.07;;;;;;;8.66;49.46;100185.78;5015668;28;20468;-67
2022/04/29 01:41:07;;;;;;;20.17;13.17;;;;;;;8.58;49.69;100178.47;5015768;28;20077;-67
2022/04/29 01:43:37;;;;;;;21.35;13.10;;;;;;;8.50;50.17;100170.38;5016430;28;20041;-67
2022/04/29 01:46:04;;;;;;;24.63;13.97;;;;;;;8.59;50.05;100172.22;4999759;28;20515;-67
2022/04/29 01:48:43;;;;;;;21.17;13.00;;;;;;;8.55;50.21;100174.28;5015574;28;20063;-66
2022/04/29 01:51:15;;;;;;;21.85;13.43;;;;;;;8.60;50.06;100184.47;5016133;28;20041;-67
2022/04/29 01:53:41;;;;;;;22.53;13.37;;;;;;;8.63;50.01;100178.06;5015489;28;20049;-66
2022/04/29 01:56:07;;;;;;;23.23;13.50;;;;;;;8.57;50.06;100179.47;5031880;28;20093;-65
2022/04/29 01:58:34;;;;;;;24.00;13.83;;;;;;;8.59;50.17;100180.19;5015635;28;20128;-65
2022/04/29 02:01:01;;;;;;;26.40;14.77;;;;;;;8.37;50.23;100146.75;5015429;28;20175;-65
2022/04/29 02:03:26;;;;;;;25.97;13.87;;;;;;;8.55;50.18;100174.28;5031724;28;20525;-66
2022/04/29 02:05:52;;;;;;;28.20;15.30;;;;;;;8.54;50.10;100175.28;5031663;28;20048;-66
2022/04/29 02:08:18;;;;;;;27.03;15.43;;;;;;;8.57;49.90;100176.81;5031727;28;20107;-66
2022/04/29 02:10:45;;;;;;;27.07;15.57;;;;;;;8.52;50.20;100179.00;5031502;28;20833;-65
2022/04/29 02:13:14;;;;;;;26.40;15.27;;;;;;;8.56;50.12;100185.72;5022810;28;20123;-66
2022/04/29 02:16:03;;;;;;;25.00;14.80;;;;;;;8.57;50.15;100182.09;5029076;28;20052;-65
2022/04/29 02:18:30;;;;;;;21.73;13.60;;;;;;;8.68;49.88;100189.97;5019614;28;20048;-66
2022/04/29 02:20:57;;;;;;;27.03;14.80;;;;;;;8.54;50.16;100183.22;5001061;28;20051;-66
2022/04/29 02:23:22;;;;;;;25.20;14.97;;;;;;;8.60;50.18;100184.47;5025115;28;20040;-65
2022/04/29 02:25:48;;;;;;;19.67;13.23;;;;;;;8.59;50.20;100185.47;5051329;28;20044;-65
2022/04/29 02:28:14;;;;;;;22.50;13.60;;;;;;;8.63;49.94;100184.22;5015271;28;20493;-65
2022/04/29 02:30:40;;;;;;;23.67;14.17;;;;;;;8.54;50.10;100172.63;5016694;28;20059;-66
2022/04/29 02:33:07;;;;;;;25.20;13.60;;;;;;;8.57;50.02;100155.63;5033427;28;20033;-64
2022/04/29 02:35:33;;;;;;;24.93;13.90;;;;;;;8.62;50.09;100182.56;5000484;28;20503;-65
2022/04/29 02:37:58;;;;;;;20.70;13.73;;;;;;;8.67;49.70;100192.75;5033613;28;20147;-64
2022/04/29 02:40:24;;;;;;;23.43;12.90;;;;;;;8.62;49.89;100184.34;5033297;28;20041;-65
2022/04/29 02:42:50;;;;;;;24.87;13.83;;;;;;;8.68;49.83;100186.47;5033199;28;20041;-65
2022/04/29 02:45:16;;;;;;;20.40;12.57;;;;;;;8.61;49.67;100191.44;5016404;28;20045;-65
2022/04/29 02:47:47;;;;;;;22.20;13.13;;;;;;;8.65;49.27;100200.81;5015951;28;20688;-67
2022/04/29 02:50:14;;;;;;;23.63;13.60;;;;;;;8.71;49.47;100196.78;5014683;28;20481;-66
2022/04/29 02:52:56;;;;;;;25.97;13.80;;;;;;;8.71;49.16;100195.00;5033867;28;20635;-65
2022/04/29 02:55:22;;;;;;;22.90;14.30;;;;;;;8.67;49.26;100188.31;5031203;28;20048;-65
2022/04/29 02:57:52;;;;;;;23.13;13.73;;;;;;;8.66;49.29;100191.91;5031894;28;20489;-65
2022/04/29 03:00:21;;;;;;;24.33;14.03;;;;;;;8.93;49.22;100197.47;5016200;28;20123;-66
2022/04/29 03:02:47;;;;;;;21.10;13.13;;;;;;;8.69;49.26;100196.94;5032266;28;20048;-66
2022/04/29 03:05:13;;;;;;;19.73;13.10;;;;;;;8.65;49.31;100190.22;4999972;28;20044;-66
2022/04/29 03:07:38;;;;;;;26.33;13.70;;;;;;;8.51;49.45;100172.91;5015571;28;20063;-66
2022/04/29 03:10:07;;;;;;;21.53;12.90;;;;;;;8.77;49.09;100201.56;5033083;28;20045;-65
2022/04/29 03:12:36;;;;;;;21.63;13.27;;;;;;;8.67;49.18;100208.63;5000326;28;20469;-66
2022/04/29 03:15:17;;;;;;;23.50;13.57;;;;;;;8.66;49.49;100202.50;5014671;28;20049;-66
2022/04/29 03:20:35;;;;;;;22.53;13.57;;;;;;;8.99;49.04;100220.78;5034624;28;20045;-66
2022/04/29 03:23:02;;;;;;;23.23;13.40;;;;;;;8.84;49.16;100219.44;5033279;28;20051;-66
2022/04/29 03:25:30;;;;;;;25.03;13.20;;;;;;;8.74;49.37;100215.91;5016546;28;20051;-66
2022/04/29 03:27:56;;;;;;;23.70;15.10;;;;;;;8.73;49.42;100216.03;5030982;28;20516;-65
2022/04/29 03:30:22;;;;;;;26.57;13.87;;;;;;;8.69;49.21;100196.94;5049228;28;20040;-65
2022/04/29 03:32:55;;;;;;;24.33;14.23;;;;;;;9.01;49.18;100226.75;5033114;28;20067;-65
2022/04/29 03:35:30;;;;;;;24.07;14.63;;;;;;;8.77;49.23;100194.47;5033182;28;20144;-66
2022/04/29 03:37:56;;;;;;;26.93;14.40;;;;;;;8.93;49.11;100231.91;5016310;28;20045;-65
2022/04/29 03:40:26;;;;;;;23.73;14.70;;;;;;;8.99;49.05;100211.97;5016432;28;20552;-65
2022/04/29 03:42:56;;;;;;;26.27;14.17;;;;;;;9.15;48.92;100231.69;5033201;28;20037;-65
2022/04/29 03:45:24;;;;;;;26.07;14.23;;;;;;;9.09;49.05;100240.19;5016515;28;20382;-65
2022/04/29 03:47:51;;;;;;;23.57;14.37;;;;;;;9.00;49.00;100227.75;5033108;28;20040;-65
2022/04/29 03:50:34;;;;;;;23.03;13.10;;;;;;;9.08;49.04;100233.22;5018700;28;20523;-65
2022/04/29 03:53:07;;;;;;;22.30;12.73;;;;;;;9.16;48.75;100236.03;5017893;28;20386;-65
2022/04/29 03:55:38;;;;;;;24.00;13.60;;;;;;;9.18;49.17;100234.06;5016604;28;20544;-65
2022/04/29 03:58:04;;;;;;;20.73;13.00;;;;;;;9.24;48.68;100236.19;5033285;28;20140;-65
2022/04/29 04:00:40;;;;;;;23.80;13.20;;;;;;;9.32;48.42;100231.03;5017769;28;20424;-65
2022/04/29 04:03:06;;;;;;;21.87;12.53;;;;;;;9.34;48.36;100236.22;5016377;28;20048;-67
2022/04/29 04:05:34;;;;;;;18.53;11.67;;;;;;;9.43;48.36;100228.28;5016622;28;20520;-65
2022/04/29 04:08:00;;;;;;;21.27;12.17;;;;;;;9.49;48.28;100246.31;5000107;28;20053;-65
2022/04/29 04:10:46;;;;;;;19.77;12.17;;;;;;;9.48;48.23;100244.63;5018818;28;20063;-66
2022/04/29 04:13:14;;;;;;;19.07;11.57;;;;;;;9.36;48.05;100210.41;4999655;28;20041;-65
2022/04/29 04:15:53;;;;;;;18.13;11.10;;;;;;;9.58;48.14;100242.81;5017600;28;20139;-67
2022/04/29 04:18:19;;;;;;;17.23;12.07;;;;;;;9.68;48.16;100249.00;5031965;28;20140;-66
2022/04/29 04:20:48;;;;;;;19.17;12.30;;;;;;;9.72;47.98;100244.22;4999842;28;20049;-67
2022/04/29 04:23:15;;;;;;;17.47;11.60;;;;;;;9.92;47.72;100248.56;5016487;28;20509;-70
2022/04/29 04:25:41;;;;;;;20.23;10.73;;;;;;;9.84;47.66;100245.81;5016279;28;20053;-70
2022/04/29 04:28:13;;;;;;;18.87;11.13;;;;;;;9.93;47.39;100251.09;5016128;28;20132;-71
2022/04/29 04:30:48;;;;;;;18.40;11.03;;;;;;;10.02;47.61;100254.75;5002832;28;20527;-69
2022/04/29 04:33:17;;;;;;;16.77;11.67;;;;;;;10.03;47.43;100251.94;5017107;28;20053;-70
2022/04/29 04:35:44;;;;;;;16.03;10.50;;;;;;;10.08;47.51;100254.22;4999826;28;20433;-73
2022/04/29 04:38:09;;;;;;;19.47;11.20;;;;;;;10.12;47.17;100256.44;5029710;28;20069;-72
2022/04/29 04:40:49;;;;;;;19.20;10.23;;;;;;;10.16;46.93;100259.66;5001071;28;20045;-69
2022/04/29 04:43:16;;;;;;;15.50;10.20;;;;;;;10.19;46.91;100262.84;5014748;28;20053;-71
2022/04/29 04:45:42;;;;;;;18.00;9.97;;;;;;;10.34;46.73;100265.09;5014923;28;20110;-70
2022/04/29 04:48:26;;;;;;;14.40;9.67;;;;;;;10.44;46.44;100258.78;5047193;28;20049;-72
2022/04/29 04:51:10;;;;;;;14.73;8.37;;;;;;;10.43;45.97;100261.59;5034411;28;20055;-71
2022/04/29 04:53:41;;;;;;;16.15;8.55;;;;;;;10.44;45.55;100268.59;4999856;28;20533;-71
2022/04/29 04:56:07;;;;;;;14.60;8.57;;;;;;;10.47;46.17;100274.44;5031749;28;20037;-71
2022/04/29 04:58:34;;;;;;;9.53;6.60;;;;;;;10.48;45.12;100275.28;4997757;28;20098;-70
2022/04/29 05:01:01;;;;;;;9.80;6.27;;;;;;;10.65;44.59;100269.25;5030285;28;20045;-69
2022/04/29 05:03:45;;;;;;;8.93;6.07;;;;;;;10.64;44.07;100265.75;5019149;28;20052;-70
2022/04/29 05:06:23;;;;;;;9.33;6.23;;;;;;;10.68;44.99;100274.25;5032352;28;20049;-66
2022/04/29 05:08:49;;;;;;;10.47;6.10;;;;;;;10.79;43.73;100271.44;5013666;28;20079;-67
2022/04/29 05:11:15;;;;;;;13.47;6.10;;;;;;;10.88;43.34;100274.09;5014758;28;20629;-69
2022/04/29 05:13:42;;;;;;;9.43;5.82;;;;;;;10.73;42.96;100264.06;5014596;28;20037;-68
2022/04/29 05:16:10;;;;;;;9.67;5.60;;;;;;;11.06;42.42;100260.84;5014265;28;20064;-70
2022/04/29 05:19:02;;;;;;;7.05;4.78;;;;;;;11.01;40.86;100274.59;5033971;28;20072;-68
2022/04/29 05:21:28;;;;;;;7.72;4.47;;;;;;;11.08;40.32;100272.19;4998065;28;20040;-69
2022/04/29 05:23:53;;;;;;;7.95;4.70;;;;;;;11.15;40.00;100278.59;5014070;28;20479;-68
2022/04/29 05:26:37;;;;;;;6.47;4.22;;;;;;;11.05;39.81;100285.78;5018249;28;20049;-68
2022/04/29 05:29:22;;;;;;;6.22;3.28;;;;;;;11.09;39.70;100277.34;5018583;28;20076;-68
2022/04/29 05:32:20;;;;;;;6.60;3.70;;;;;;;11.31;38.17;100279.66;5004468;28;20132;-69
2022/04/29 05:35:05;;;;;;;3.83;2.70;;;;;;;11.44;36.99;100274.81;5036694;28;20111;-69
2022/04/29 05:37:54;;;;;;;5.43;3.42;;;;;;;11.58;36.83;100282.31;5001067;28;20504;-68
2022/04/29 05:43:08;;;;;;;3.47;2.63;;;;;;;11.75;36.54;100278.88;5036541;28;20459;-70
2022/04/29 05:45:34;;;;;;;3.72;2.72;;;;;;;11.81;35.86;100278.28;5017747;28;20041;-68
2022/04/29 05:48:00;;;;;;;1.67;1.58;;;;;;;11.60;33.78;100266.19;5000834;28;20072;-68
2022/04/29 05:50:32;;;;;;;5.28;1.88;;;;;;;11.86;33.24;100275.16;5001365;28;20052;-68
2022/04/29 05:52:59;;;;;;;1.52;1.30;;;;;;;11.84;31.62;100277.13;5017933;28;20041;-70
2022/04/29 05:55:26;;;;;;;2.05;1.27;;;;;;;11.88;30.58;100273.19;5018162;28;20066;-68
2022/04/29 05:57:57;;;;;;;1.70;1.50;;;;;;;11.99;30.39;100270.31;5018325;28;20041;-67
2022/04/29 06:00:22;;;;;;;2.25;1.30;;;;;;;12.05;30.79;100280.34;5017102;28;20162;-68
2022/04/29 06:03:00;;;;;;;5.20;1.30;;;;;;;12.17;29.55;100279.13;5004340;28;20145;-68
2022/04/29 06:05:28;;;;;;;1.42;1.30;;;;;;;12.22;28.78;100274.19;5017133;28;20053;-70
2022/04/29 06:07:54;;;;;;;2.17;1.40;;;;;;;12.32;28.60;100268.75;5016334;28;20052;-67
2022/04/29 06:10:28;;;;;;;1.67;1.40;;;;;;;12.32;26.99;100272.28;5017580;28;20140;-69
2022/04/29 06:12:55;;;;;;;1.30;1.10;;;;;;;12.40;24.89;100275.00;5016480;28;20052;-67
2022/04/29 06:15:32;;;;;;;2.08;1.00;;;;;;;12.60;23.08;100260.50;5018123;28;20198;-69
2022/04/29 06:18:32;;;;;;;3.88;1.23;;;;;;;12.33;25.20;100263.28;5015181;28;20602;-68
2022/04/29 06:21:30;;;;;;;5.57;1.10;;;;;;;12.45;21.21;100256.75;5017921;28;20044;-67
2022/04/29 06:24:11;;;;;;;3.38;1.40;;;;;;;12.69;23.30;100253.41;5018654;28;20048;-67
2022/04/29 06:26:37;;;;;;;2.38;1.38;;;;;;;12.79;23.52;100251.47;5016456;28;20052;-67
2022/04/29 06:29:04;;;;;;;1.08;1.05;;;;;;;12.87;23.67;100257.69;5032343;28;20095;-68
2022/04/29 06:31:30;;;;;;;2.20;1.02;;;;;;;13.00;21.46;100260.81;5049317;28;20523;-68
2022/04/29 06:34:16;;;;;;;3.88;0.90;;;;;;;13.08;20.59;100257.34;5035863;28;20421;-69
2022/04/29 06:36:41;;;;;;;5.30;0.90;;;;;;;12.96;20.35;100227.41;5016472;28;20550;-68
2022/04/29 06:39:08;;;;;;;3.65;1.00;;;;;;;13.33;20.40;100253.81;5000133;28;20193;-68
2022/04/29 06:41:49;;;;;;;1.90;1.10;;;;;;;13.48;19.17;100263.69;5034343;28;20048;-67
2022/04/29 06:44:33;;;;;;;0.95;0.90;;;;;;;13.61;18.71;100254.41;5021689;28;20049;-67
2022/04/29 06:47:19;;;;;;;7.05;1.05;;;;;;;13.70;18.53;100246.22;5049094;28;20460;-67
2022/04/29 06:50:03;;;;;;;3.03;0.90;;;;;;;13.97;18.08;100253.13;5003961;28;20045;-70
2022/04/29 06:52:48;;;;;;;3.72;1.30;;;;;;;14.35;18.99;100250.69;5032345;28;20045;-67
2022/04/29 06:55:19;;;;;;;2.03;1.25;;;;;;;14.55;17.64;100244.00;4985022;28;20051;-67
2022/04/29 06:57:47;;;;;;;8.65;1.30;;;;;;;14.68;18.27;100254.19;5032322;28;20044;-68
2022/04/29 07:00:13;;;;;;;1.95;0.90;;;;;;;14.89;17.80;100257.16;4998967;28;20040;-67
2022/04/29 07:02:41;;;;;;;3.00;1.20;;;;;;;15.10;17.39;100252.06;5016355;28;20051;-68
2022/04/29 07:05:08;;;;;;;2.50;1.20;;;;;;;15.26;17.73;100244.00;4999541;28;20191;-68
2022/04/29 07:07:34;;;;;;;2.05;1.27;;;;;;;15.51;17.31;100252.78;4983466;28;20537;-67
2022/04/29 07:10:20;;;;;;;3.15;1.30;;;;;;;15.88;17.34;100245.75;4988444;28;20044;-68
2022/04/29 07:12:57;;;;;;;2.38;1.20;;;;;;;16.77;16.67;100244.00;5016298;28;20500;-68
2022/04/29 07:15:24;;;;;;;1.67;1.20;;;;;;;18.40;15.45;100245.25;4983004;28;20408;-71
2022/04/29 07:17:51;;;;;;;1.45;1.27;;;;;;;20.29;12.29;100248.16;4999753;28;20465;-69
2022/04/29 07:20:18;;;;;;;5.80;1.40;;;;;;;22.74;11.98;100241.28;4998902;28;20075;-69
2022/04/29 07:22:46;;;;;;;3.45;1.35;;;;;;;25.33;9.52;100247.13;5000428;28;20048;-69
2022/04/29 07:25:13;;;;;;;3.22;1.08;;;;;;;27.74;8.20;100244.00;4999209;28;20139;-69
2022/04/29 07:27:40;;;;;;;2.42;1.30;;;;;;;29.73;7.10;100245.16;5049409;28;20072;-69
2022/04/29 07:30:12;;;;;;;3.03;0.93;;;;;;;30.86;6.00;100240.19;4978485;28;20045;-71
2022/04/29 07:32:54;;;;;;;4.28;1.10;;;;;;;31.56;5.15;100243.88;4995043;28;20049;-70
2022/04/29 07:44:01;;;;;;;2.15;1.25;;;;;;;33.40;3.94;100238.19;5001252;28;20044;-70
2022/04/29 07:46:30;;;;;;;1.65;1.17;;;;;;;33.51;3.96;100241.63;4983651;28;20037;-71
2022/04/29 07:49:14;;;;;;;1.52;1.00;;;;;;;34.26;3.70;100218.56;5003375;28;20037;-75
2022/04/29 07:51:41;;;;;;;2.08;1.02;;;;;;;35.38;3.27;100219.16;4998078;28;20413;-71
2022/04/29 07:54:07;;;;;;;3.15;1.20;;;;;;;36.49;2.91;100234.94;4998193;28;20260;-71
2022/04/29 07:56:34;;;;;;;5.32;1.48;;;;;;;37.39;2.04;100229.00;5014761;28;20809;-71
2022/04/29 07:59:06;;;;;;;2.17;1.20;;;;;;;38.84;1.84;100222.81;4998922;28;20032;-71
2022/04/29 08:01:45;;;;;;;2.50;0.93;;;;;;;39.47;1.46;100208.88;5030958;28;20400;-71
2022/04/29 08:04:13;;;;;;;1.13;0.75;;;;;;;38.78;1.42;100221.34;5016551;28;20501;-74
2022/04/29 08:06:40;;;;;;;2.05;0.70;;;;;;;38.24;1.69;100218.09;4998965;28;20049;-71
2022/04/29 08:09:08;;;;;;;3.75;0.80;;;;;;;38.26;1.29;100217.78;5023532;28;20484;-70
2022/04/29 08:11:37;;;;;;;1.38;0.80;;;;;;;36.56;2.33;100217.88;5001693;28;20448;-69
2022/04/29 08:14:30;;;;;;;3.08;1.20;;;;;;;36.05;2.84;100214.66;5013312;28;20052;-73
2022/04/29 08:17:20;;;;;;;2.03;0.90;;;;;;;35.40;2.46;100198.38;5014875;28;20041;-71
2022/04/29 08:19:49;;;;;;;4.53;1.20;;;;;;;34.96;2.76;100195.34;5011782;28;20049;-70
2022/04/29 08:22:20;;;;;;;2.38;0.88;;;;;;;35.58;2.37;100193.88;5011443;28;20061;-71
2022/04/29 08:24:47;;;;;;;5.38;1.10;;;;;;;33.97;3.16;100190.34;4994804;28;20417;-71
2022/04/29 08:27:16;;;;;;;5.63;1.13;;;;;;;32.53;4.07;100187.00;5011348;28;20041;-71
2022/04/29 08:29:42;;;;;;;2.55;1.10;;;;;;;31.11;4.16;100174.28;4994499;28;20049;-70
2022/04/29 08:32:12;;;;;;;4.35;1.10;;;;;;;31.48;4.27;100173.06;4994973;28;20148;-72
2022/04/29 08:34:42;;;;;;;3.47;1.13;;;;;;;33.68;3.32;100176.66;5012013;28;20524;-71
2022/04/29 08:37:08;;;;;;;5.95;1.20;;;;;;;34.12;2.91;100184.63;4995123;28;20452;-71
2022/04/29 08:39:40;;;;;;;2.85;1.00;;;;;;;32.29;3.78;100185.25;5012142;28;20077;-72
2022/04/29 08:42:06;;;;;;;4.15;1.15;;;;;;;31.69;4.31;100169.13;5009447;28;20149;-74
2022/04/29 08:44:33;;;;;;;2.78;1.20;;;;;;;31.60;4.19;100155.16;5026413;28;20144;-71
2022/04/29 08:47:26;;;;;;;4.05;1.15;;;;;;;30.03;4.91;100171.31;5043244;28;20433;-72
2022/04/29 08:49:59;;;;;;;2.00;1.13;;;;;;;30.08;5.28;100166.63;5026879;28;20049;-72
2022/04/29 08:52:25;;;;;;;6.28;1.20;;;;;;;28.41;5.85;100143.38;5027766;28;20575;-71
2022/04/29 09:00:23;;;;;;;5.82;1.30;;;;;;;33.79;3.11;100160.81;5044208;28;20585;-73
2022/04/29 09:02:49;;;;;;;3.92;1.90;;;;;;;32.73;3.80;100155.72;4994631;28;20053;-71
2022/04/29 09:05:15;;;;;;;4.22;1.15;;;;;;;30.85;4.56;100152.66;4996312;28;20049;-72
2022/04/29 09:07:55;;;;;;;2.17;1.10;;;;;;;28.61;5.53;100121.69;5031382;28;20056;-71
2022/04/29 09:10:24;;;;;;;2.73;1.43;;;;;;;26.73;6.30;100143.63;5030695;28;20037;-70
2022/04/29 09:12:50;;;;;;;8.00;1.60;;;;;;;26.27;6.96;100142.06;5013497;28;20056;-71
2022/04/29 09:15:16;;;;;;;1.13;1.02;;;;;;;27.24;6.32;100145.13;5018365;28;20055;-71
2022/04/29 09:17:47;;;;;;;2.33;1.15;;;;;;;27.08;6.49;100141.38;5051450;28;20123;-72
2022/04/29 09:20:19;;;;;;;;;;;;;;;26.28;6.80;100129.25;5068400;28;20052;-71
2022/04/29 09:22:47;;;;;;;2.25;1.67;;;;;;;27.03;7.05;100129.59;5017418;28;20296;-71
2022/04/29 09:25:36;;;;;;;1.92;1.27;;;;;;;29.86;5.34;100138.66;5036447;28;20044;-71
2022/04/29 09:28:42;;;;;;;4.28;1.40;;;;;;;30.90;4.91;100114.25;5002231;28;20049;-72
2022/04/29 09:31:26;;;;;;;3.13;1.20;;;;;;;31.42;4.59;100125.59;5012690;28;20092;-73
2022/04/29 09:33:56;;;;;;;3.38;1.17;;;;;;;32.99;3.80;100123.25;5041997;28;20086;-74
2022/04/29 09:36:30;;;;;;;6.68;1.30;;;;;;;33.35;3.84;100125.28;5051055;28;20067;-74
2022/04/29 09:41:58;;;;;;;4.35;1.67;;;;;;;31.32;4.27;100133.06;5050404;28;20055;-71
2022/04/29 09:44:30;;;;;;;2.53;1.10;;;;;;;33.60;3.43;100122.22;5050755;28;20052;-71
2022/04/29 09:46:56;;;;;;;2.78;1.38;;;;;;;35.29;2.77;100121.50;5050214;28;20041;-72
2022/04/29 09:49:26;;;;;;;3.13;1.20;;;;;;;35.61;2.83;100115.84;5066558;28;20037;-72
2022/04/29 09:51:52;;;;;;;3.80;1.30;;;;;;;29.27;4.41;100113.59;5049978;28;20172;-71
2022/04/29 09:54:19;;;;;;;3.63;1.30;;;;;;;29.38;5.27;100104.28;5050135;28;20047;-71
2022/04/29 09:57:05;;;;;;;6.10;1.65;;;;;;;31.32;4.61;100103.69;5050258;28;20162;-72
2022/04/29 09:59:51;;;;;;;4.05;1.50;;;;;;;30.90;4.63;100100.53;5050109;28;20045;-72
2022/04/29 10:02:21;;;;;;;3.17;1.50;;;;;;;29.76;4.92;100119.47;5033355;28;20091;-71
2022/04/29 10:04:55;;;;;;;1.67;1.10;;;;;;;26.43;6.50;100094.91;5018290;28;20052;-72
2022/04/29 10:07:22;;;;;;;1.40;1.10;;;;;;;24.87;7.05;100071.31;5050270;28;20048;-72
2022/04/29 10:09:55;;;;;;;1.67;1.38;;;;;;;26.55;6.83;100093.97;5066461;28;20048;-71
2022/04/29 10:12:26;;;;;;;2.05;1.40;;;;;;;28.26;6.28;100089.44;5032152;28;20040;-72
2022/04/29 10:15:16;;;;;;;1.88;1.50;;;;;;;27.61;6.19;100086.09;5052732;28;20559;-70
2022/04/29 10:23:36;;;;;;;1.85;1.45;;;;;;;32.45;3.96;100118.88;5022165;28;20047;-72
2022/04/29 10:26:02;;;;;;;1.58;1.40;;;;;;;31.87;4.76;100092.41;5020355;28;20055;-72
2022/04/29 10:28:28;;;;;;;3.78;1.40;;;;;;;29.34;5.07;100075.81;5052958;28;20408;-72
2022/04/29 10:31:09;;;;;;;4.00;2.50;;;;;;;29.78;5.08;100111.81;5035686;28;20044;-71
2022/04/29 10:33:44;;;;;;;3.10;1.70;;;;;;;30.07;4.79;100095.69;5068761;28;20458;-73
2022/04/29 10:36:14;;;;;;;3.88;1.80;;;;;;;28.22;5.51;100088.31;5036683;28;20086;-71
2022/04/29 10:38:42;;;;;;;6.57;1.92;;;;;;;25.74;7.02;100078.22;5070679;28;20079;-71
2022/04/29 10:41:14;;;;;;;2.45;1.52;;;;;;;24.13;8.08;100076.66;5052517;28;20100;-70
2022/04/29 10:43:45;;;;;;;6.80;1.58;;;;;;;23.22;8.58;100076.94;5052630;28;20082;-71
2022/04/29 10:46:11;;;;;;;3.70;1.80;;;;;;;24.45;8.09;100073.34;5070765;28;20043;-71
2022/04/29 10:48:48;;;;;;;6.25;2.20;;;;;;;26.12;7.08;100072.91;5068896;28;20106;-71
2022/04/29 10:51:37;;;;;;;2.10;1.40;;;;;;;27.09;6.80;100072.13;5022105;28;20041;-72
2022/04/29 10:54:34;;;;;;;2.55;1.42;;;;;;;27.75;6.85;100074.47;5054499;28;20040;-71
2022/04/29 10:57:41;;;;;;;3.42;1.40;;;;;;;28.86;5.98;100073.41;5055497;28;20052;-71
2022/04/29 11:00:11;;;;;;;5.70;3.78;;;;;;;29.26;5.44;100048.97;5035933;28;20055;-71
2022/04/29 11:02:39;;;;;;;2.55;1.65;;;;;;;27.68;6.17;100064.88;5036087;28;20043;-70
2022/04/29 11:05:07;;;;;;;3.15;2.08;;;;;;;27.41;6.37;100061.31;5035720;28;20041;-71
2022/04/29 11:07:36;;;;;;;3.72;1.50;;;;;;;26.76;6.58;100065.97;5035785;28;20399;-72
2022/04/29 11:10:07;;;;;;;3.13;1.50;;;;;;;27.03;6.70;100055.97;5052118;28;20053;-72
2022/04/29 11:12:34;;;;;;;4.85;1.55;;;;;;;26.76;6.98;100053.16;5034754;28;20048;-70
2022/04/29 11:15:21;;;;;;;3.88;1.27;;;;;;;25.09;7.36;100047.03;5051385;28;20044;-71
2022/04/29 11:18:20;;;;;;;1.80;1.33;;;;;;;25.17;8.06;100041.22;5037672;28;20519;-70
2022/04/29 11:20:55;;;;;;;5.35;1.60;;;;;;;24.22;8.03;100039.94;5018931;28;20051;-71
2022/04/29 11:26:11;;;;;;;2.03;1.58;;;;;;;23.65;8.64;100043.44;5038247;28;20044;-71
2022/04/29 11:28:51;;;;;;;4.05;1.60;;;;;;;23.74;8.69;100026.56;5003728;28;20139;-71
2022/04/29 11:31:35;;;;;;;6.78;1.83;;;;;;;21.73;9.42;100030.59;5037604;28;20416;-70
2022/04/29 11:34:16;;;;;;;3.92;1.40;;;;;;;21.53;10.11;100019.94;5018587;28;20493;-71
2022/04/29 11:36:43;;;;;;;1.60;1.40;;;;;;;21.46;10.46;100023.75;5052480;28;20518;-70
2022/04/29 11:39:18;;;;;;;5.47;1.70;;;;;;;21.33;10.47;99994.09;5018646;28;20066;-71
2022/04/29 11:41:56;;;;;;;2.97;1.55;;;;;;;21.20;10.93;99994.19;5067855;28;20114;-74
2022/04/29 11:44:45;;;;;;;4.15;1.50;;;;;;;20.92;10.77;100015.31;5035374;28;20032;-70
2022/04/29 11:47:12;;;;;;;4.05;1.70;;;;;;;20.66;11.30;100015.41;5034862;28;20040;-70
2022/04/29 11:49:42;;;;;;;4.32;1.20;;;;;;;19.64;11.34;99972.03;5034496;28;20048;-71
2022/04/29 11:52:22;;;;;;;5.07;1.40;;;;;;;19.65;11.71;99997.94;5016435;28;20041;-70
2022/04/29 11:54:58;;;;;;;2.90;1.50;;;;;;;19.77;11.67;99998.16;5049772;28;20102;-71
2022/04/29 11:57:29;;;;;;;3.35;1.40;;;;;;;19.77;11.89;99976.59;5033388;28;20335;-71
2022/04/29 11:59:55;;;;;;;2.63;1.35;;;;;;;20.06;11.67;99990.44;5050238;28;20055;-73
2022/04/29 12:02:23;;;;;;;5.90;1.40;;;;;;;19.60;11.72;99967.28;5034317;28;20052;-71
2022/04/29 12:05:04;;;;;;;3.88;1.40;;;;;;;19.89;12.03;99994.63;5035679;28;20137;-69
2022/04/29 12:07:41;;;;;;;3.88;1.38;;;;;;;19.94;12.01;99992.13;5018574;28;20065;-69
2022/04/29 12:10:35;;;;;;;3.00;1.55;;;;;;;19.64;12.17;99988.22;5018609;28;20090;-69
2022/04/29 12:13:04;;;;;;;5.53;1.45;;;;;;;19.32;12.49;99986.34;5015892;28;20055;-70
2022/04/29 12:15:38;;;;;;;1.70;1.50;;;;;;;18.76;13.09;99990.31;5034895;28;20513;-71